Terminal Aerodrome Forecast
Issued by NWS

Home | Current Version | Previous Version | Text Only | Print | Product List | Glossary On
Versions: 1 2 3 4 5 6 7 8 9 10 11 12 13 14 15 16
579
FTUS45 KTFX 232323
TAFHVR
TAF
KHVR 232323Z 2400/2424 33011KT P6SM FEW070 SCT200
      TEMPO 2400/2403 SCT060 BKN100
     FM241300 VRB04KT P6SM SCT050 BKN100
     FM242000 33007KT P6SM SCT080=

USA.gov is the U.S. government's official web portal to all federal, state and local government web resources and services.